sensor_id;sensor_type;location;lat;lon;timestamp;P1;P2;P0
52290;PMS5003;39663;45.432;28.050;2024-01-11T00:01:08;55.0;47.0;
52290;PMS5003;39663;45.432;28.050;2024-01-11T00:01:44;57.0;47.0;
52290;PMS5003;39663;45.432;28.050;2024-01-11T00:02:16;61.0;53.0;
52290;PMS5003;39663;45.432;28.050;2024-01-11T00:02:48;51.0;49.0;
52290;PMS5003;39663;45.432;28.050;2024-01-11T00:03:20;55.0;52.0;
52290;PMS5003;39663;45.432;28.050;2024-01-11T00:03:51;58.0;52.0;
52290;PMS5003;39663;45.432;28.050;2024-01-11T00:04:23;61.0;57.0;
52290;PMS5003;39663;45.432;28.050;2024-01-11T00:04:55;58.0;55.0;
52290;PMS5003;39663;45.432;28.050;2024-01-11T00:05:28;51.0;47.0;
52290;PMS5003;39663;45.432;28.050;2024-01-11T00:06:01;62.0;55.0;
52290;PMS5003;39663;45.432;28.050;2024-01-11T00:06:42;62.0;52.0;
52290;PMS5003;39663;45.432;28.050;2024-01-11T00:07:27;57.0;52.0;
52290;PMS5003;39663;45.432;28.050;2024-01-11T00:08:02;58.0;54.0;
52290;PMS5003;39663;45.432;28.050;2024-01-11T00:08:36;58.0;54.0;
52290;PMS5003;39663;45.432;28.050;2024-01-11T00:09:09;64.0;60.0;
52290;PMS5003;39663;45.432;28.050;2024-01-11T00:09:41;59.0;56.0;
52290;PMS5003;39663;45.432;28.050;2024-01-11T00:10:13;62.0;56.0;
52290;PMS5003;39663;45.432;28.050;2024-01-11T00:10:47;61.0;54.0;
52290;PMS5003;39663;45.432;28.050;2024-01-11T00:11:20;55.0;53.0;
52290;PMS5003;39663;45.432;28.050;2024-01-11T00:11:53;61.0;55.0;
52290;PMS5003;39663;45.432;28.050;2024-01-11T00:12:29;58.0;54.0;
52290;PMS5003;39663;45.432;28.050;2024-01-11T00:13:03;59.0;55.0;
52290;PMS5003;39663;45.432;28.050;2024-01-11T00:13:34;65.0;55.0;
52290;PMS5003;39663;45.432;28.050;2024-01-11T00:14:07;65.0;60.0;
52290;PMS5003;39663;45.432;28.050;2024-01-11T00:14:39;62.0;54.0;
52290;PMS5003;39663;45.432;28.050;2024-01-11T00:15:12;60.0;57.0;
52290;PMS5003;39663;45.432;28.050;2024-01-11T00:15:46;65.0;60.0;
52290;PMS5003;39663;45.432;28.050;2024-01-11T00:16:17;64.0;58.0;
52290;PMS5003;39663;45.432;28.050;2024-01-11T00:16:49;56.0;55.0;
52290;PMS5003;39663;45.432;28.050;2024-01-11T00:17:23;58.0;54.0;
52290;PMS5003;39663;45.432;28.050;2024-01-11T00:17:59;72.0;62.0;
52290;PMS5003;39663;45.432;28.050;2024-01-11T00:18:31;63.0;58.0;
52290;PMS5003;39663;45.432;28.050;2024-01-11T00:19:03;65.0;57.0;
52290;PMS5003;39663;45.432;28.050;2024-01-11T00:19:38;62.0;57.0;
52290;PMS5003;39663;45.432;28.050;2024-01-11T00:20:09;70.0;59.0;
52290;PMS5003;39663;45.432;28.050;2024-01-11T00:20:41;62.0;56.0;
52290;PMS5003;39663;45.432;28.050;2024-01-11T00:21:13;64.0;58.0;
52290;PMS5003;39663;45.432;28.050;2024-01-11T00:21:45;64.0;60.0;
52290;PMS5003;39663;45.432;28.050;2024-01-11T00:22:19;64.0;56.0;
52290;PMS5003;39663;45.432;28.050;2024-01-11T00:22:50;64.0;61.0;
52290;PMS5003;39663;45.432;28.050;2024-01-11T00:23:22;73.0;61.0;
52290;PMS5003;39663;45.432;28.050;2024-01-11T00:23:53;72.0;65.0;
52290;PMS5003;39663;45.432;28.050;2024-01-11T00:24:25;59.0;56.0;
52290;PMS5003;39663;45.432;28.050;2024-01-11T00:24:56;69.0;61.0;
52290;PMS5003;39663;45.432;28.050;2024-01-11T00:25:29;62.0;57.0;
52290;PMS5003;39663;45.432;28.050;2024-01-11T00:26:01;66.0;63.0;
52290;PMS5003;39663;45.432;28.050;2024-01-11T00:26:33;69.0;58.0;
52290;PMS5003;39663;45.432;28.050;2024-01-11T00:27:05;66.0;63.0;
52290;PMS5003;39663;45.432;28.050;2024-01-11T00:27:36;66.0;59.0;
52290;PMS5003;39663;45.432;28.050;2024-01-11T00:28:08;64.0;60.0;
52290;PMS5003;39663;45.432;28.050;2024-01-11T00:28:39;63.0;53.0;
52290;PMS5003;39663;45.432;28.050;2024-01-11T00:29:11;53.0;50.0;
52290;PMS5003;39663;45.432;28.050;2024-01-11T00:29:43;55.0;48.0;
52290;PMS5003;39663;45.432;28.050;2024-01-11T00:30:16;63.0;51.0;
52290;PMS5003;39663;45.432;28.050;2024-01-11T00:30:48;63.0;60.0;
52290;PMS5003;39663;45.432;28.050;2024-01-11T00:31:22;61.0;56.0;
52290;PMS5003;39663;45.432;28.050;2024-01-11T00:31:53;59.0;55.0;
52290;PMS5003;39663;45.432;28.050;2024-01-11T00:32:27;49.0;49.0;
52290;PMS5003;39663;45.432;28.050;2024-01-11T00:32:59;52.0;48.0;
52290;PMS5003;39663;45.432;28.050;2024-01-11T00:33:32;54.0;51.0;
52290;PMS5003;39663;45.432;28.050;2024-01-11T00:34:05;48.0;44.0;
52290;PMS5003;39663;45.432;28.050;2024-01-11T00:34:38;44.0;43.0;
52290;PMS5003;39663;45.432;28.050;2024-01-11T00:35:10;52.0;50.0;
52290;PMS5003;39663;45.432;28.050;2024-01-11T00:35:42;52.0;48.0;
52290;PMS5003;39663;45.432;28.050;2024-01-11T00:36:17;48.0;46.0;
52290;PMS5003;39663;45.432;28.050;2024-01-11T00:36:49;51.0;47.0;
52290;PMS5003;39663;45.432;28.050;2024-01-11T00:37:21;49.0;43.0;
52290;PMS5003;39663;45.432;28.050;2024-01-11T00:37:53;51.0;50.0;
52290;PMS5003;39663;45.432;28.050;2024-01-11T00:38:25;42.0;41.0;
52290;PMS5003;39663;45.432;28.050;2024-01-11T00:38:56;44.0;41.0;
52290;PMS5003;39663;45.432;28.050;2024-01-11T00:39:28;50.0;45.0;
52290;PMS5003;39663;45.432;28.050;2024-01-11T00:40:01;47.0;45.0;
52290;PMS5003;39663;45.432;28.050;2024-01-11T00:40:34;44.0;41.0;
52290;PMS5003;39663;45.432;28.050;2024-01-11T00:41:08;47.0;43.0;
52290;PMS5003;39663;45.432;28.050;2024-01-11T00:41:40;48.0;47.0;
52290;PMS5003;39663;45.432;28.050;2024-01-11T00:42:11;46.0;44.0;
52290;PMS5003;39663;45.432;28.050;2024-01-11T00:42:43;52.0;44.0;
52290;PMS5003;39663;45.432;28.050;2024-01-11T00:43:15;53.0;45.0;
52290;PMS5003;39663;45.432;28.050;2024-01-11T00:43:48;48.0;43.0;
52290;PMS5003;39663;45.432;28.050;2024-01-11T00:44:24;44.0;43.0;
52290;PMS5003;39663;45.432;28.050;2024-01-11T00:44:55;42.0;38.0;
52290;PMS5003;39663;45.432;28.050;2024-01-11T00:45:27;49.0;45.0;
52290;PMS5003;39663;45.432;28.050;2024-01-11T00:45:59;44.0;44.0;
52290;PMS5003;39663;45.432;28.050;2024-01-11T00:46:31;49.0;46.0;
52290;PMS5003;39663;45.432;28.050;2024-01-11T00:47:03;53.0;49.0;
52290;PMS5003;39663;45.432;28.050;2024-01-11T00:47:35;52.0;48.0;
52290;PMS5003;39663;45.432;28.050;2024-01-11T00:48:06;46.0;43.0;
52290;PMS5003;39663;45.432;28.050;2024-01-11T00:48:38;44.0;39.0;
52290;PMS5003;39663;45.432;28.050;2024-01-11T00:49:10;39.0;37.0;
52290;PMS5003;39663;45.432;28.050;2024-01-11T00:49:43;49.0;48.0;
52290;PMS5003;39663;45.432;28.050;2024-01-11T00:50:15;46.0;41.0;
52290;PMS5003;39663;45.432;28.050;2024-01-11T00:50:47;43.0;40.0;
52290;PMS5003;39663;45.432;28.050;2024-01-11T00:51:20;50.0;42.0;
52290;PMS5003;39663;45.432;28.050;2024-01-11T00:51:51;47.0;43.0;
52290;PMS5003;39663;45.432;28.050;2024-01-11T00:52:23;51.0;45.0;
52290;PMS5003;39663;45.432;28.050;2024-01-11T00:52:56;46.0;44.0;
52290;PMS5003;39663;45.432;28.050;2024-01-11T00:53:28;49.0;43.0;
52290;PMS5003;39663;45.432;28.050;2024-01-11T00:54:00;49.0;46.0;
52290;PMS5003;39663;45.432;28.050;2024-01-11T00:54:33;42.0;39.0;
52290;PMS5003;39663;45.432;28.050;2024-01-11T00:55:05;42.0;40.0;
52290;PMS5003;39663;45.432;28.050;2024-01-11T00:55:37;55.0;47.0;
52290;PMS5003;39663;45.432;28.050;2024-01-11T00:56:15;53.0;44.0;
52290;PMS5003;39663;45.432;28.050;2024-01-11T00:56:47;53.0;48.0;
52290;PMS5003;39663;45.432;28.050;2024-01-11T00:57:19;50.0;43.0;
52290;PMS5003;39663;45.432;28.050;2024-01-11T00:57:51;43.0;37.0;
52290;PMS5003;39663;45.432;28.050;2024-01-11T00:58:25;48.0;47.0;
52290;PMS5003;39663;45.432;28.050;2024-01-11T00:58:57;48.0;40.0;
52290;PMS5003;39663;45.432;28.050;2024-01-11T01:07:09;44.0;39.0;
52290;PMS5003;39663;45.432;28.050;2024-01-11T01:07:40;45.0;39.0;
52290;PMS5003;39663;45.432;28.050;2024-01-11T01:08:12;42.0;38.0;
52290;PMS5003;39663;45.432;28.050;2024-01-11T01:08:44;39.0;36.0;
52290;PMS5003;39663;45.432;28.050;2024-01-11T01:09:15;47.0;45.0;
52290;PMS5003;39663;45.432;28.050;2024-01-11T01:09:46;42.0;38.0;
52290;PMS5003;39663;45.432;28.050;2024-01-11T01:10:18;42.0;41.0;
52290;PMS5003;39663;45.432;28.050;2024-01-11T01:10:49;45.0;45.0;
52290;PMS5003;39663;45.432;28.050;2024-01-11T01:11:21;44.0;38.0;
52290;PMS5003;39663;45.432;28.050;2024-01-11T01:11:52;45.0;40.0;
52290;PMS5003;39663;45.432;28.050;2024-01-11T01:12:23;38.0;37.0;
52290;PMS5003;39663;45.432;28.050;2024-01-11T01:12:55;46.0;46.0;
52290;PMS5003;39663;45.432;28.050;2024-01-11T01:13:26;40.0;37.0;
52290;PMS5003;39663;45.432;28.050;2024-01-11T01:13:58;36.0;35.0;
52290;PMS5003;39663;45.432;28.050;2024-01-11T01:14:29;46.0;42.0;
52290;PMS5003;39663;45.432;28.050;2024-01-11T01:15:01;41.0;37.0;
52290;PMS5003;39663;45.432;28.050;2024-01-11T01:15:32;37.0;35.0;
52290;PMS5003;39663;45.432;28.050;2024-01-11T01:16:04;38.0;38.0;
52290;PMS5003;39663;45.432;28.050;2024-01-11T01:16:35;40.0;38.0;
52290;PMS5003;39663;45.432;28.050;2024-01-11T01:17:06;46.0;41.0;
52290;PMS5003;39663;45.432;28.050;2024-01-11T01:17:38;41.0;39.0;
52290;PMS5003;39663;45.432;28.050;2024-01-11T01:18:09;44.0;39.0;
52290;PMS5003;39663;45.432;28.050;2024-01-11T01:18:40;39.0;35.0;
52290;PMS5003;39663;45.432;28.050;2024-01-11T01:19:12;46.0;39.0;
52290;PMS5003;39663;45.432;28.050;2024-01-11T01:19:43;43.0;40.0;
52290;PMS5003;39663;45.432;28.050;2024-01-11T01:20:15;40.0;37.0;
52290;PMS5003;39663;45.432;28.050;2024-01-11T01:20:46;46.0;39.0;
52290;PMS5003;39663;45.432;28.050;2024-01-11T01:21:18;42.0;37.0;
52290;PMS5003;39663;45.432;28.050;2024-01-11T01:21:49;35.0;35.0;
52290;PMS5003;39663;45.432;28.050;2024-01-11T01:22:20;40.0;36.0;
52290;PMS5003;39663;45.432;28.050;2024-01-11T01:22:52;40.0;37.0;
52290;PMS5003;39663;45.432;28.050;2024-01-11T01:23:23;40.0;40.0;
52290;PMS5003;39663;45.432;28.050;2024-01-11T01:23:55;42.0;39.0;
52290;PMS5003;39663;45.432;28.050;2024-01-11T01:24:26;36.0;36.0;
52290;PMS5003;39663;45.432;28.050;2024-01-11T01:24:57;42.0;39.0;
52290;PMS5003;39663;45.432;28.050;2024-01-11T01:25:29;36.0;35.0;
52290;PMS5003;39663;45.432;28.050;2024-01-11T01:26:00;43.0;38.0;
52290;PMS5003;39663;45.432;28.050;2024-01-11T01:26:32;35.0;33.0;
52290;PMS5003;39663;45.432;28.050;2024-01-11T01:27:03;40.0;37.0;
52290;PMS5003;39663;45.432;28.050;2024-01-11T01:27:35;45.0;40.0;
52290;PMS5003;39663;45.432;28.050;2024-01-11T01:28:06;46.0;41.0;
52290;PMS5003;39663;45.432;28.050;2024-01-11T01:28:38;37.0;34.0;
52290;PMS5003;39663;45.432;28.050;2024-01-11T01:29:09;35.0;30.0;
52290;PMS5003;39663;45.432;28.050;2024-01-11T01:29:40;50.0;42.0;
52290;PMS5003;39663;45.432;28.050;2024-01-11T01:30:12;44.0;41.0;
52290;PMS5003;39663;45.432;28.050;2024-01-11T01:30:43;38.0;35.0;
52290;PMS5003;39663;45.432;28.050;2024-01-11T01:31:15;42.0;37.0;
52290;PMS5003;39663;45.432;28.050;2024-01-11T01:31:46;38.0;37.0;
52290;PMS5003;39663;45.432;28.050;2024-01-11T01:32:17;42.0;34.0;
52290;PMS5003;39663;45.432;28.050;2024-01-11T01:32:49;49.0;43.0;
52290;PMS5003;39663;45.432;28.050;2024-01-11T01:33:20;38.0;36.0;
52290;PMS5003;39663;45.432;28.050;2024-01-11T01:33:52;42.0;38.0;
52290;PMS5003;39663;45.432;28.050;2024-01-11T01:34:23;39.0;36.0;
52290;PMS5003;39663;45.432;28.050;2024-01-11T01:34:55;49.0;46.0;
52290;PMS5003;39663;45.432;28.050;2024-01-11T01:35:26;46.0;43.0;
52290;PMS5003;39663;45.432;28.050;2024-01-11T01:35:57;43.0;40.0;
52290;PMS5003;39663;45.432;28.050;2024-01-11T01:36:29;39.0;36.0;
52290;PMS5003;39663;45.432;28.050;2024-01-11T01:37:00;36.0;35.0;
52290;PMS5003;39663;45.432;28.050;2024-01-11T01:37:32;43.0;41.0;
52290;PMS5003;39663;45.432;28.050;2024-01-11T01:38:03;39.0;38.0;
52290;PMS5003;39663;45.432;28.050;2024-01-11T01:38:34;41.0;37.0;
52290;PMS5003;39663;45.432;28.050;2024-01-11T01:39:06;45.0;39.0;
52290;PMS5003;39663;45.432;28.050;2024-01-11T01:39:37;37.0;36.0;
52290;PMS5003;39663;45.432;28.050;2024-01-11T01:40:09;43.0;40.0;
52290;PMS5003;39663;45.432;28.050;2024-01-11T01:40:41;40.0;39.0;
52290;PMS5003;39663;45.432;28.050;2024-01-11T01:41:13;48.0;36.0;
52290;PMS5003;39663;45.432;28.050;2024-01-11T01:41:44;48.0;40.0;
52290;PMS5003;39663;45.432;28.050;2024-01-11T01:42:15;42.0;37.0;
52290;PMS5003;39663;45.432;28.050;2024-01-11T01:42:47;38.0;31.0;
52290;PMS5003;39663;45.432;28.050;2024-01-11T01:43:19;49.0;43.0;
52290;PMS5003;39663;45.432;28.050;2024-01-11T01:43:50;42.0;38.0;
52290;PMS5003;39663;45.432;28.050;2024-01-11T01:44:22;37.0;34.0;
52290;PMS5003;39663;45.432;28.050;2024-01-11T01:44:53;44.0;40.0;
52290;PMS5003;39663;45.432;28.050;2024-01-11T01:45:25;36.0;33.0;
52290;PMS5003;39663;45.432;28.050;2024-01-11T01:45:56;50.0;42.0;
52290;PMS5003;39663;45.432;28.050;2024-01-11T01:46:28;41.0;40.0;
52290;PMS5003;39663;45.432;28.050;2024-01-11T01:47:00;36.0;34.0;
52290;PMS5003;39663;45.432;28.050;2024-01-11T01:47:33;44.0;40.0;
52290;PMS5003;39663;45.432;28.050;2024-01-11T01:48:05;40.0;39.0;
52290;PMS5003;39663;45.432;28.050;2024-01-11T01:48:39;39.0;33.0;
52290;PMS5003;39663;45.432;28.050;2024-01-11T01:49:10;45.0;38.0;
52290;PMS5003;39663;45.432;28.050;2024-01-11T01:49:43;39.0;38.0;
52290;PMS5003;39663;45.432;28.050;2024-01-11T01:50:18;35.0;31.0;
52290;PMS5003;39663;45.432;28.050;2024-01-11T01:50:50;44.0;40.0;
52290;PMS5003;39663;45.432;28.050;2024-01-11T01:51:21;42.0;38.0;
52290;PMS5003;39663;45.432;28.050;2024-01-11T01:51:58;45.0;38.0;
52290;PMS5003;39663;45.432;28.050;2024-01-11T01:52:30;38.0;35.0;
52290;PMS5003;39663;45.432;28.050;2024-01-11T01:53:03;46.0;43.0;
52290;PMS5003;39663;45.432;28.050;2024-01-11T01:53:35;45.0;43.0;
52290;PMS5003;39663;45.432;28.050;2024-01-11T01:54:07;46.0;42.0;
52290;PMS5003;39663;45.432;28.050;2024-01-11T01:54:38;41.0;40.0;
52290;PMS5003;39663;45.432;28.050;2024-01-11T01:55:10;37.0;35.0;
52290;PMS5003;39663;45.432;28.050;2024-01-11T01:55:43;37.0;31.0;
52290;PMS5003;39663;45.432;28.050;2024-01-11T01:56:15;38.0;37.0;
52290;PMS5003;39663;45.432;28.050;2024-01-11T01:56:51;43.0;37.0;
52290;PMS5003;39663;45.432;28.050;2024-01-11T01:57:24;44.0;40.0;
52290;PMS5003;39663;45.432;28.050;2024-01-11T01:57:57;44.0;42.0;
52290;PMS5003;39663;45.432;28.050;2024-01-11T01:58:30;38.0;35.0;
52290;PMS5003;39663;45.432;28.050;2024-01-11T01:59:12;41.0;41.0;
52290;PMS5003;39663;45.432;28.050;2024-01-11T01:59:48;46.0;40.0;
52290;PMS5003;39663;45.432;28.050;2024-01-11T02:00:22;35.0;35.0;
52290;PMS5003;39663;45.432;28.050;2024-01-11T02:00:54;37.0;36.0;
52290;PMS5003;39663;45.432;28.050;2024-01-11T02:01:26;41.0;35.0;
52290;PMS5003;39663;45.432;28.050;2024-01-11T02:01:58;42.0;39.0;
52290;PMS5003;39663;45.432;28.050;2024-01-11T02:02:30;40.0;38.0;
52290;PMS5003;39663;45.432;28.050;2024-01-11T02:03:04;31.0;29.0;
52290;PMS5003;39663;45.432;28.050;2024-01-11T02:03:38;43.0;40.0;
52290;PMS5003;39663;45.432;28.050;2024-01-11T02:04:11;35.0;32.0;
52290;PMS5003;39663;45.432;28.050;2024-01-11T02:04:43;41.0;35.0;
52290;PMS5003;39663;45.432;28.050;2024-01-11T02:05:14;37.0;35.0;
52290;PMS5003;39663;45.432;28.050;2024-01-11T02:05:48;41.0;33.0;
52290;PMS5003;39663;45.432;28.050;2024-01-11T02:06:20;37.0;37.0;
52290;PMS5003;39663;45.432;28.050;2024-01-11T02:06:55;38.0;35.0;
52290;PMS5003;39663;45.432;28.050;2024-01-11T02:07:28;42.0;38.0;
52290;PMS5003;39663;45.432;28.050;2024-01-11T02:08:00;37.0;37.0;
52290;PMS5003;39663;45.432;28.050;2024-01-11T02:08:34;41.0;36.0;
52290;PMS5003;39663;45.432;28.050;2024-01-11T02:09:06;36.0;33.0;
52290;PMS5003;39663;45.432;28.050;2024-01-11T02:09:39;42.0;40.0;
52290;PMS5003;39663;45.432;28.050;2024-01-11T02:10:11;39.0;36.0;
52290;PMS5003;39663;45.432;28.050;2024-01-11T02:10:44;40.0;37.0;
52290;PMS5003;39663;45.432;28.050;2024-01-11T02:11:16;39.0;34.0;
52290;PMS5003;39663;45.432;28.050;2024-01-11T02:11:48;35.0;34.0;
52290;PMS5003;39663;45.432;28.050;2024-01-11T02:12:21;43.0;37.0;
52290;PMS5003;39663;45.432;28.050;2024-01-11T02:12:54;41.0;34.0;
52290;PMS5003;39663;45.432;28.050;2024-01-11T02:13:26;39.0;38.0;
52290;PMS5003;39663;45.432;28.050;2024-01-11T02:13:58;40.0;37.0;
52290;PMS5003;39663;45.432;28.050;2024-01-11T02:14:30;42.0;40.0;
52290;PMS5003;39663;45.432;28.050;2024-01-11T02:15:03;39.0;35.0;
52290;PMS5003;39663;45.432;28.050;2024-01-11T02:15:36;40.0;36.0;
52290;PMS5003;39663;45.432;28.050;2024-01-11T02:16:08;30.0;29.0;
52290;PMS5003;39663;45.432;28.050;2024-01-11T02:16:39;33.0;30.0;
52290;PMS5003;39663;45.432;28.050;2024-01-11T02:17:11;39.0;33.0;
52290;PMS5003;39663;45.432;28.050;2024-01-11T02:17:42;34.0;34.0;
52290;PMS5003;39663;45.432;28.050;2024-01-11T02:18:14;35.0;32.0;
52290;PMS5003;39663;45.432;28.050;2024-01-11T02:18:45;36.0;32.0;
52290;PMS5003;39663;45.432;28.050;2024-01-11T02:19:17;37.0;35.0;
52290;PMS5003;39663;45.432;28.050;2024-01-11T02:19:50;45.0;38.0;
52290;PMS5003;39663;45.432;28.050;2024-01-11T02:20:21;41.0;37.0;
52290;PMS5003;39663;45.432;28.050;2024-01-11T02:20:53;36.0;36.0;
52290;PMS5003;39663;45.432;28.050;2024-01-11T02:21:25;37.0;35.0;
52290;PMS5003;39663;45.432;28.050;2024-01-11T02:22:00;42.0;39.0;
52290;PMS5003;39663;45.432;28.050;2024-01-11T02:22:40;36.0;33.0;
52290;PMS5003;39663;45.432;28.050;2024-01-11T02:23:18;35.0;34.0;
52290;PMS5003;39663;45.432;28.050;2024-01-11T02:24:02;42.0;36.0;
52290;PMS5003;39663;45.432;28.050;2024-01-11T02:24:34;38.0;34.0;
52290;PMS5003;39663;45.432;28.050;2024-01-11T02:25:08;42.0;40.0;
52290;PMS5003;39663;45.432;28.050;2024-01-11T02:25:39;37.0;34.0;
52290;PMS5003;39663;45.432;28.050;2024-01-11T02:26:12;41.0;34.0;
52290;PMS5003;39663;45.432;28.050;2024-01-11T02:26:57;34.0;33.0;
52290;PMS5003;39663;45.432;28.050;2024-01-11T02:27:29;39.0;36.0;
52290;PMS5003;39663;45.432;28.050;2024-01-11T02:28:01;31.0;31.0;
52290;PMS5003;39663;45.432;28.050;2024-01-11T02:28:32;35.0;32.0;
52290;PMS5003;39663;45.432;28.050;2024-01-11T02:29:06;35.0;33.0;
52290;PMS5003;39663;45.432;28.050;2024-01-11T02:29:42;37.0;34.0;
52290;PMS5003;39663;45.432;28.050;2024-01-11T02:30:15;39.0;33.0;
52290;PMS5003;39663;45.432;28.050;2024-01-11T02:30:47;40.0;38.0;
52290;PMS5003;39663;45.432;28.050;2024-01-11T02:31:19;43.0;40.0;
52290;PMS5003;39663;45.432;28.050;2024-01-11T02:31:59;38.0;33.0;
52290;PMS5003;39663;45.432;28.050;2024-01-11T02:32:33;42.0;36.0;
52290;PMS5003;39663;45.432;28.050;2024-01-11T02:33:07;46.0;43.0;
52290;PMS5003;39663;45.432;28.050;2024-01-11T02:33:40;39.0;36.0;
52290;PMS5003;39663;45.432;28.050;2024-01-11T02:34:12;37.0;34.0;
52290;PMS5003;39663;45.432;28.050;2024-01-11T02:34:44;40.0;39.0;
52290;PMS5003;39663;45.432;28.050;2024-01-11T02:35:16;32.0;28.0;
52290;PMS5003;39663;45.432;28.050;2024-01-11T02:35:48;36.0;32.0;
52290;PMS5003;39663;45.432;28.050;2024-01-11T02:36:21;35.0;31.0;
52290;PMS5003;39663;45.432;28.050;2024-01-11T02:36:52;34.0;33.0;
52290;PMS5003;39663;45.432;28.050;2024-01-11T02:37:25;34.0;31.0;
52290;PMS5003;39663;45.432;28.050;2024-01-11T02:37:56;33.0;32.0;
52290;PMS5003;39663;45.432;28.050;2024-01-11T02:38:28;34.0;32.0;
52290;PMS5003;39663;45.432;28.050;2024-01-11T02:39:02;37.0;34.0;
52290;PMS5003;39663;45.432;28.050;2024-01-11T02:39:34;43.0;39.0;
52290;PMS5003;39663;45.432;28.050;2024-01-11T02:40:06;40.0;39.0;
52290;PMS5003;39663;45.432;28.050;2024-01-11T02:40:39;34.0;28.0;
52290;PMS5003;39663;45.432;28.050;2024-01-11T02:41:12;43.0;37.0;
52290;PMS5003;39663;45.432;28.050;2024-01-11T02:41:47;39.0;33.0;
52290;PMS5003;39663;45.432;28.050;2024-01-11T02:42:20;36.0;34.0;
52290;PMS5003;39663;45.432;28.050;2024-01-11T02:42:52;39.0;38.0;
52290;PMS5003;39663;45.432;28.050;2024-01-11T02:43:25;35.0;30.0;
52290;PMS5003;39663;45.432;28.050;2024-01-11T02:43:57;38.0;35.0;
52290;PMS5003;39663;45.432;28.050;2024-01-11T02:44:29;36.0;32.0;
52290;PMS5003;39663;45.432;28.050;2024-01-11T02:45:02;38.0;36.0;
52290;PMS5003;39663;45.432;28.050;2024-01-11T02:45:34;37.0;33.0;
52290;PMS5003;39663;45.432;28.050;2024-01-11T02:46:08;34.0;30.0;
52290;PMS5003;39663;45.432;28.050;2024-01-11T02:46:39;39.0;35.0;
52290;PMS5003;39663;45.432;28.050;2024-01-11T02:47:11;34.0;32.0;
52290;PMS5003;39663;45.432;28.050;2024-01-11T02:47:44;26.0;26.0;
52290;PMS5003;39663;45.432;28.050;2024-01-11T02:48:16;33.0;29.0;
52290;PMS5003;39663;45.432;28.050;2024-01-11T02:48:49;33.0;30.0;
52290;PMS5003;39663;45.432;28.050;2024-01-11T02:49:21;30.0;30.0;
52290;PMS5003;39663;45.432;28.050;2024-01-11T02:49:52;42.0;37.0;
52290;PMS5003;39663;45.432;28.050;2024-01-11T02:50:27;35.0;34.0;
52290;PMS5003;39663;45.432;28.050;2024-01-11T02:50:59;32.0;29.0;
52290;PMS5003;39663;45.432;28.050;2024-01-11T02:51:31;41.0;38.0;
52290;PMS5003;39663;45.432;28.050;2024-01-11T02:52:02;33.0;31.0;
52290;PMS5003;39663;45.432;28.050;2024-01-11T02:52:34;38.0;34.0;
52290;PMS5003;39663;45.432;28.050;2024-01-11T02:53:06;35.0;31.0;
52290;PMS5003;39663;45.432;28.050;2024-01-11T02:53:37;46.0;41.0;
52290;PMS5003;39663;45.432;28.050;2024-01-11T02:54:10;36.0;33.0;
52290;PMS5003;39663;45.432;28.050;2024-01-11T02:54:42;39.0;35.0;
52290;PMS5003;39663;45.432;28.050;2024-01-11T02:55:13;35.0;34.0;
52290;PMS5003;39663;45.432;28.050;2024-01-11T02:55:46;32.0;31.0;
52290;PMS5003;39663;45.432;28.050;2024-01-11T02:56:23;35.0;32.0;
52290;PMS5003;39663;45.432;28.050;2024-01-11T02:56:55;33.0;32.0;
52290;PMS5003;39663;45.432;28.050;2024-01-11T02:57:27;43.0;37.0;
52290;PMS5003;39663;45.432;28.050;2024-01-11T02:57:58;37.0;35.0;
52290;PMS5003;39663;45.432;28.050;2024-01-11T02:58:30;37.0;32.0;
52290;PMS5003;39663;45.432;28.050;2024-01-11T02:59:01;34.0;32.0;
52290;PMS5003;39663;45.432;28.050;2024-01-11T02:59:33;38.0;33.0;
52290;PMS5003;39663;45.432;28.050;2024-01-11T03:00:04;37.0;35.0;
52290;PMS5003;39663;45.432;28.050;2024-01-11T03:01:02;40.0;36.0;
52290;PMS5003;39663;45.432;28.050;2024-01-11T03:01:34;36.0;35.0;
52290;PMS5003;39663;45.432;28.050;2024-01-11T03:02:07;39.0;35.0;
52290;PMS5003;39663;45.432;28.050;2024-01-11T03:02:38;41.0;37.0;
52290;PMS5003;39663;45.432;28.050;2024-01-11T03:03:10;35.0;34.0;
52290;PMS5003;39663;45.432;28.050;2024-01-11T03:03:41;37.0;30.0;
52290;PMS5003;39663;45.432;28.050;2024-01-11T03:04:13;36.0;35.0;
52290;PMS5003;39663;45.432;28.050;2024-01-11T03:04:44;40.0;36.0;
52290;PMS5003;39663;45.432;28.050;2024-01-11T03:05:16;40.0;35.0;
52290;PMS5003;39663;45.432;28.050;2024-01-11T03:05:50;32.0;30.0;
52290;PMS5003;39663;45.432;28.050;2024-01-11T03:06:21;41.0;32.0;
52290;PMS5003;39663;45.432;28.050;2024-01-11T03:06:53;31.0;29.0;
52290;PMS5003;39663;45.432;28.050;2024-01-11T03:07:25;35.0;32.0;
52290;PMS5003;39663;45.432;28.050;2024-01-11T03:07:57;41.0;36.0;
52290;PMS5003;39663;45.432;28.050;2024-01-11T03:08:29;36.0;31.0;
52290;PMS5003;39663;45.432;28.050;2024-01-11T03:09:03;44.0;39.0;
52290;PMS5003;39663;45.432;28.050;2024-01-11T03:09:35;41.0;36.0;
52290;PMS5003;39663;45.432;28.050;2024-01-11T03:10:07;39.0;34.0;
52290;PMS5003;39663;45.432;28.050;2024-01-11T03:10:39;37.0;36.0;
52290;PMS5003;39663;45.432;28.050;2024-01-11T03:11:12;47.0;41.0;
52290;PMS5003;39663;45.432;28.050;2024-01-11T03:11:43;31.0;30.0;
52290;PMS5003;39663;45.432;28.050;2024-01-11T03:12:15;34.0;31.0;
52290;PMS5003;39663;45.432;28.050;2024-01-11T03:12:48;37.0;34.0;
52290;PMS5003;39663;45.432;28.050;2024-01-11T03:13:20;40.0;37.0;
52290;PMS5003;39663;45.432;28.050;2024-01-11T03:13:52;40.0;38.0;
52290;PMS5003;39663;45.432;28.050;2024-01-11T03:14:25;40.0;34.0;
52290;PMS5003;39663;45.432;28.050;2024-01-11T03:14:58;41.0;32.0;
52290;PMS5003;39663;45.432;28.050;2024-01-11T03:15:29;33.0;33.0;
52290;PMS5003;39663;45.432;28.050;2024-01-11T03:16:02;37.0;35.0;
52290;PMS5003;39663;45.432;28.050;2024-01-11T03:16:36;36.0;32.0;
52290;PMS5003;39663;45.432;28.050;2024-01-11T03:17:08;35.0;32.0;
52290;PMS5003;39663;45.432;28.050;2024-01-11T03:17:41;38.0;37.0;
52290;PMS5003;39663;45.432;28.050;2024-01-11T03:18:13;38.0;33.0;
52290;PMS5003;39663;45.432;28.050;2024-01-11T03:18:46;33.0;30.0;
52290;PMS5003;39663;45.432;28.050;2024-01-11T03:19:22;38.0;32.0;
52290;PMS5003;39663;45.432;28.050;2024-01-11T03:19:55;34.0;34.0;
52290;PMS5003;39663;45.432;28.050;2024-01-11T03:20:27;40.0;37.0;
52290;PMS5003;39663;45.432;28.050;2024-01-11T03:20:59;32.0;29.0;
52290;PMS5003;39663;45.432;28.050;2024-01-11T03:21:31;40.0;34.0;
52290;PMS5003;39663;45.432;28.050;2024-01-11T03:22:04;43.0;37.0;
52290;PMS5003;39663;45.432;28.050;2024-01-11T03:22:35;40.0;34.0;
52290;PMS5003;39663;45.432;28.050;2024-01-11T03:23:09;40.0;35.0;
52290;PMS5003;39663;45.432;28.050;2024-01-11T03:23:41;38.0;35.0;
52290;PMS5003;39663;45.432;28.050;2024-01-11T03:24:13;35.0;34.0;
52290;PMS5003;39663;45.432;28.050;2024-01-11T03:24:44;39.0;35.0;
52290;PMS5003;39663;45.432;28.050;2024-01-11T03:25:16;38.0;36.0;
52290;PMS5003;39663;45.432;28.050;2024-01-11T03:25:48;38.0;34.0;
52290;PMS5003;39663;45.432;28.050;2024-01-11T03:26:21;39.0;31.0;
52290;PMS5003;39663;45.432;28.050;2024-01-11T03:26:52;36.0;36.0;
52290;PMS5003;39663;45.432;28.050;2024-01-11T03:27:24;40.0;35.0;
52290;PMS5003;39663;45.432;28.050;2024-01-11T03:27:57;39.0;37.0;